sensor_id;sensor_type;location;lat;lon;timestamp;P1;durP1;ratioP1;P2;durP2;ratioP2
21741;SDS011;11033;47.490;11.116;2022-11-20T00:00:37;4.97;;;3.72;;
21741;SDS011;11033;47.490;11.116;2022-11-20T00:03:02;4.68;;;2.97;;
21741;SDS011;11033;47.490;11.116;2022-11-20T00:05:28;9.40;;;3.65;;
21741;SDS011;11033;47.490;11.116;2022-11-20T00:07:53;5.07;;;3.23;;
21741;SDS011;11033;47.490;11.116;2022-11-20T00:10:18;4.27;;;3.50;;
21741;SDS011;11033;47.490;11.116;2022-11-20T00:12:44;4.57;;;3.60;;
21741;SDS011;11033;47.490;11.116;2022-11-20T00:15:09;5.60;;;3.83;;
21741;SDS011;11033;47.490;11.116;2022-11-20T00:17:35;7.10;;;4.47;;
21741;SDS011;11033;47.490;11.116;2022-11-20T00:20:00;4.82;;;3.65;;
21741;SDS011;11033;47.490;11.116;2022-11-20T00:22:25;5.38;;;4.50;;
21741;SDS011;11033;47.490;11.116;2022-11-20T00:24:50;4.70;;;3.70;;
21741;SDS011;11033;47.490;11.116;2022-11-20T00:27:16;5.80;;;3.37;;
21741;SDS011;11033;47.490;11.116;2022-11-20T00:29:41;6.53;;;3.67;;
21741;SDS011;11033;47.490;11.116;2022-11-20T00:32:06;6.17;;;3.93;;
21741;SDS011;11033;47.490;11.116;2022-11-20T00:34:31;4.27;;;3.00;;
21741;SDS011;11033;47.490;11.116;2022-11-20T00:36:57;4.87;;;2.97;;
21741;SDS011;11033;47.490;11.116;2022-11-20T00:39:22;4.88;;;3.15;;
21741;SDS011;11033;47.490;11.116;2022-11-20T00:41:47;3.83;;;3.38;;
21741;SDS011;11033;47.490;11.116;2022-11-20T00:44:13;5.23;;;3.80;;
21741;SDS011;11033;47.490;11.116;2022-11-20T00:46:38;3.67;;;3.27;;
21741;SDS011;11033;47.490;11.116;2022-11-20T00:49:03;6.15;;;4.22;;
21741;SDS011;11033;47.490;11.116;2022-11-20T00:51:28;5.93;;;3.50;;
21741;SDS011;11033;47.490;11.116;2022-11-20T00:53:54;4.90;;;4.13;;
21741;SDS011;11033;47.490;11.116;2022-11-20T00:56:21;6.22;;;4.28;;
21741;SDS011;11033;47.490;11.116;2022-11-20T00:58:47;6.05;;;4.63;;
21741;SDS011;11033;47.490;11.116;2022-11-20T01:01:14;5.72;;;4.13;;
21741;SDS011;11033;47.490;11.116;2022-11-20T01:03:42;6.45;;;3.55;;
21741;SDS011;11033;47.490;11.116;2022-11-20T01:06:19;6.93;;;4.45;;
21741;SDS011;11033;47.490;11.116;2022-11-20T01:08:50;10.35;;;4.15;;
21741;SDS011;11033;47.490;11.116;2022-11-20T01:11:18;7.35;;;4.63;;
21741;SDS011;11033;47.490;11.116;2022-11-20T01:13:45;4.90;;;3.40;;
21741;SDS011;11033;47.490;11.116;2022-11-20T01:16:15;4.03;;;2.92;;
21741;SDS011;11033;47.490;11.116;2022-11-20T01:18:42;7.30;;;3.20;;
21741;SDS011;11033;47.490;11.116;2022-11-20T01:21:11;3.03;;;2.72;;
21741;SDS011;11033;47.490;11.116;2022-11-20T01:23:39;7.18;;;3.28;;
21741;SDS011;11033;47.490;11.116;2022-11-20T01:26:08;2.55;;;2.30;;
21741;SDS011;11033;47.490;11.116;2022-11-20T01:28:37;3.13;;;2.72;;
21741;SDS011;11033;47.490;11.116;2022-11-20T01:33:49;3.72;;;2.67;;
21741;SDS011;11033;47.490;11.116;2022-11-20T01:36:16;4.63;;;2.55;;
21741;SDS011;11033;47.490;11.116;2022-11-20T01:38:42;4.43;;;2.95;;
21741;SDS011;11033;47.490;11.116;2022-11-20T01:41:09;4.85;;;3.03;;
21741;SDS011;11033;47.490;11.116;2022-11-20T01:43:35;3.72;;;2.85;;
21741;SDS011;11033;47.490;11.116;2022-11-20T01:46:17;3.13;;;2.47;;
21741;SDS011;11033;47.490;11.116;2022-11-20T01:51:17;3.30;;;3.00;;
21741;SDS011;11033;47.490;11.116;2022-11-20T01:53:48;3.65;;;2.83;;
21741;SDS011;11033;47.490;11.116;2022-11-20T01:56:16;3.42;;;2.70;;
21741;SDS011;11033;47.490;11.116;2022-11-20T01:58:44;4.10;;;3.30;;
21741;SDS011;11033;47.490;11.116;2022-11-20T02:01:16;3.60;;;2.95;;
21741;SDS011;11033;47.490;11.116;2022-11-20T02:03:42;4.78;;;3.33;;
21741;SDS011;11033;47.490;11.116;2022-11-20T02:06:16;4.60;;;3.08;;
21741;SDS011;11033;47.490;11.116;2022-11-20T02:08:43;4.10;;;3.28;;
21741;SDS011;11033;47.490;11.116;2022-11-20T02:11:08;3.92;;;3.30;;
21741;SDS011;11033;47.490;11.116;2022-11-20T02:13:34;3.63;;;3.15;;
21741;SDS011;11033;47.490;11.116;2022-11-20T02:16:31;5.22;;;3.33;;
21741;SDS011;11033;47.490;11.116;2022-11-20T02:19:06;5.05;;;3.05;;
21741;SDS011;11033;47.490;11.116;2022-11-20T02:24:15;2.72;;;2.40;;
21741;SDS011;11033;47.490;11.116;2022-11-20T02:29:23;5.85;;;2.78;;
21741;SDS011;11033;47.490;11.116;2022-11-20T02:31:51;3.67;;;2.45;;
21741;SDS011;11033;47.490;11.116;2022-11-20T02:34:20;3.15;;;2.50;;
21741;SDS011;11033;47.490;11.116;2022-11-20T02:36:45;3.92;;;2.60;;
21741;SDS011;11033;47.490;11.116;2022-11-20T02:39:11;3.78;;;2.70;;
21741;SDS011;11033;47.490;11.116;2022-11-20T02:41:41;2.85;;;2.55;;
21741;SDS011;11033;47.490;11.116;2022-11-20T02:44:07;2.58;;;2.38;;
21741;SDS011;11033;47.490;11.116;2022-11-20T02:46:32;3.13;;;2.15;;
21741;SDS011;11033;47.490;11.116;2022-11-20T02:48:58;2.00;;;1.90;;
21741;SDS011;11033;47.490;11.116;2022-11-20T02:51:24;3.47;;;1.95;;
21741;SDS011;11033;47.490;11.116;2022-11-20T02:53:49;2.60;;;2.40;;
21741;SDS011;11033;47.490;11.116;2022-11-20T02:56:15;2.95;;;2.20;;
21741;SDS011;11033;47.490;11.116;2022-11-20T02:58:40;3.97;;;2.17;;
21741;SDS011;11033;47.490;11.116;2022-11-20T03:01:06;2.22;;;2.03;;
21741;SDS011;11033;47.490;11.116;2022-11-20T03:03:31;3.72;;;2.75;;
21741;SDS011;11033;47.490;11.116;2022-11-20T03:05:58;3.00;;;2.45;;
21741;SDS011;11033;47.490;11.116;2022-11-20T03:08:24;5.15;;;2.70;;
21741;SDS011;11033;47.490;11.116;2022-11-20T03:10:49;2.47;;;2.20;;
21741;SDS011;11033;47.490;11.116;2022-11-20T03:13:14;4.33;;;2.60;;
21741;SDS011;11033;47.490;11.116;2022-11-20T03:15:39;4.20;;;2.80;;
21741;SDS011;11033;47.490;11.116;2022-11-20T03:18:05;4.07;;;3.38;;
21741;SDS011;11033;47.490;11.116;2022-11-20T03:20:31;3.47;;;2.78;;
21741;SDS011;11033;47.490;11.116;2022-11-20T03:22:57;3.08;;;2.75;;
21741;SDS011;11033;47.490;11.116;2022-11-20T03:25:23;3.08;;;2.55;;
21741;SDS011;11033;47.490;11.116;2022-11-20T03:27:48;3.13;;;2.28;;
21741;SDS011;11033;47.490;11.116;2022-11-20T03:30:13;2.77;;;2.43;;
21741;SDS011;11033;47.490;11.116;2022-11-20T03:32:39;4.70;;;2.78;;
21741;SDS011;11033;47.490;11.116;2022-11-20T03:35:04;3.50;;;2.57;;
21741;SDS011;11033;47.490;11.116;2022-11-20T03:37:31;3.63;;;2.55;;
21741;SDS011;11033;47.490;11.116;2022-11-20T03:39:57;3.70;;;2.50;;
21741;SDS011;11033;47.490;11.116;2022-11-20T03:42:22;3.10;;;2.80;;
21741;SDS011;11033;47.490;11.116;2022-11-20T03:45:06;2.38;;;2.17;;
21741;SDS011;11033;47.490;11.116;2022-11-20T03:47:31;3.17;;;2.88;;
21741;SDS011;11033;47.490;11.116;2022-11-20T03:49:57;2.67;;;2.43;;
21741;SDS011;11033;47.490;11.116;2022-11-20T03:52:22;4.03;;;2.50;;
21741;SDS011;11033;47.490;11.116;2022-11-20T03:54:47;2.50;;;2.30;;
21741;SDS011;11033;47.490;11.116;2022-11-20T03:57:12;4.23;;;2.27;;
21741;SDS011;11033;47.490;11.116;2022-11-20T03:59:38;3.97;;;2.70;;
21741;SDS011;11033;47.490;11.116;2022-11-20T04:02:03;3.70;;;2.65;;
21741;SDS011;11033;47.490;11.116;2022-11-20T04:04:28;3.00;;;2.70;;
21741;SDS011;11033;47.490;11.116;2022-11-20T04:06:54;2.63;;;2.17;;
21741;SDS011;11033;47.490;11.116;2022-11-20T04:09:19;2.17;;;1.98;;
21741;SDS011;11033;47.490;11.116;2022-11-20T04:11:44;2.53;;;1.93;;
21741;SDS011;11033;47.490;11.116;2022-11-20T04:14:13;3.95;;;2.20;;
21741;SDS011;11033;47.490;11.116;2022-11-20T04:16:40;2.38;;;1.77;;
21741;SDS011;11033;47.490;11.116;2022-11-20T04:19:08;2.10;;;1.90;;
21741;SDS011;11033;47.490;11.116;2022-11-20T04:21:39;2.97;;;2.00;;
21741;SDS011;11033;47.490;11.116;2022-11-20T04:24:05;2.35;;;2.08;;
21741;SDS011;11033;47.490;11.116;2022-11-20T04:26:30;4.00;;;2.50;;
21741;SDS011;11033;47.490;11.116;2022-11-20T04:28:56;3.75;;;2.30;;
21741;SDS011;11033;47.490;11.116;2022-11-20T04:31:24;3.13;;;2.13;;
21741;SDS011;11033;47.490;11.116;2022-11-20T04:33:51;2.00;;;1.80;;
21741;SDS011;11033;47.490;11.116;2022-11-20T04:36:20;2.65;;;2.10;;
21741;SDS011;11033;47.490;11.116;2022-11-20T04:41:17;2.03;;;1.83;;
21741;SDS011;11033;47.490;11.116;2022-11-20T04:43:50;3.92;;;2.13;;
21741;SDS011;11033;47.490;11.116;2022-11-20T04:46:18;2.00;;;1.90;;
21741;SDS011;11033;47.490;11.116;2022-11-20T04:48:45;2.38;;;1.88;;
21741;SDS011;11033;47.490;11.116;2022-11-20T04:51:11;5.22;;;2.00;;
21741;SDS011;11033;47.490;11.116;2022-11-20T04:53:37;3.20;;;2.35;;
21741;SDS011;11033;47.490;11.116;2022-11-20T04:56:04;3.97;;;1.98;;
21741;SDS011;11033;47.490;11.116;2022-11-20T04:58:30;3.40;;;2.17;;
21741;SDS011;11033;47.490;11.116;2022-11-20T05:01:03;2.72;;;1.70;;
21741;SDS011;11033;47.490;11.116;2022-11-20T05:03:30;2.42;;;1.85;;
21741;SDS011;11033;47.490;11.116;2022-11-20T05:05:56;3.00;;;2.17;;
21741;SDS011;11033;47.490;11.116;2022-11-20T05:08:21;1.88;;;1.75;;
21741;SDS011;11033;47.490;11.116;2022-11-20T05:10:46;1.83;;;1.70;;
21741;SDS011;11033;47.490;11.116;2022-11-20T05:13:12;2.10;;;1.90;;
21741;SDS011;11033;47.490;11.116;2022-11-20T05:15:37;3.05;;;2.10;;
21741;SDS011;11033;47.490;11.116;2022-11-20T05:18:02;2.90;;;2.17;;
21741;SDS011;11033;47.490;11.116;2022-11-20T05:20:27;2.67;;;2.20;;
21741;SDS011;11033;47.490;11.116;2022-11-20T05:22:56;2.47;;;2.25;;
21741;SDS011;11033;47.490;11.116;2022-11-20T05:25:21;3.08;;;2.55;;
21741;SDS011;11033;47.490;11.116;2022-11-20T05:27:47;3.97;;;2.45;;
21741;SDS011;11033;47.490;11.116;2022-11-20T05:30:12;5.63;;;2.90;;
21741;SDS011;11033;47.490;11.116;2022-11-20T05:32:38;2.25;;;2.05;;
21741;SDS011;11033;47.490;11.116;2022-11-20T05:35:03;5.28;;;2.53;;
21741;SDS011;11033;47.490;11.116;2022-11-20T05:37:29;4.65;;;4.07;;
21741;SDS011;11033;47.490;11.116;2022-11-20T05:39:54;4.35;;;3.42;;
21741;SDS011;11033;47.490;11.116;2022-11-20T05:42:19;5.03;;;3.55;;
21741;SDS011;11033;47.490;11.116;2022-11-20T05:44:57;5.47;;;3.00;;
21741;SDS011;11033;47.490;11.116;2022-11-20T05:47:23;5.43;;;2.90;;
21741;SDS011;11033;47.490;11.116;2022-11-20T05:49:49;3.40;;;2.88;;
21741;SDS011;11033;47.490;11.116;2022-11-20T05:52:14;3.47;;;2.95;;
21741;SDS011;11033;47.490;11.116;2022-11-20T05:54:39;3.90;;;2.45;;
21741;SDS011;11033;47.490;11.116;2022-11-20T05:57:04;3.40;;;3.10;;
21741;SDS011;11033;47.490;11.116;2022-11-20T05:59:30;7.93;;;2.77;;
21741;SDS011;11033;47.490;11.116;2022-11-20T06:01:55;4.70;;;3.00;;
21741;SDS011;11033;47.490;11.116;2022-11-20T06:04:20;5.90;;;3.17;;
21741;SDS011;11033;47.490;11.116;2022-11-20T06:06:45;3.53;;;2.83;;
21741;SDS011;11033;47.490;11.116;2022-11-20T06:09:11;3.77;;;2.37;;
21741;SDS011;11033;47.490;11.116;2022-11-20T06:11:36;4.25;;;3.15;;
21741;SDS011;11033;47.490;11.116;2022-11-20T06:14:01;3.58;;;3.28;;
21741;SDS011;11033;47.490;11.116;2022-11-20T06:16:27;4.03;;;3.03;;
21741;SDS011;11033;47.490;11.116;2022-11-20T06:18:52;5.93;;;3.10;;
21741;SDS011;11033;47.490;11.116;2022-11-20T06:21:19;3.13;;;2.78;;
21741;SDS011;11033;47.490;11.116;2022-11-20T06:23:46;4.32;;;3.53;;
21741;SDS011;11033;47.490;11.116;2022-11-20T06:26:13;4.07;;;3.42;;
21741;SDS011;11033;47.490;11.116;2022-11-20T06:28:40;4.18;;;2.72;;
21741;SDS011;11033;47.490;11.116;2022-11-20T06:31:06;3.28;;;2.55;;
21741;SDS011;11033;47.490;11.116;2022-11-20T06:33:31;5.75;;;2.72;;
21741;SDS011;11033;47.490;11.116;2022-11-20T06:35:57;2.40;;;2.20;;
21741;SDS011;11033;47.490;11.116;2022-11-20T06:38:24;2.97;;;2.13;;
21741;SDS011;11033;47.490;11.116;2022-11-20T06:40:50;4.25;;;2.65;;
21741;SDS011;11033;47.490;11.116;2022-11-20T06:43:16;4.78;;;2.75;;
21741;SDS011;11033;47.490;11.116;2022-11-20T06:45:41;3.20;;;2.58;;
21741;SDS011;11033;47.490;11.116;2022-11-20T06:48:07;2.30;;;1.83;;
21741;SDS011;11033;47.490;11.116;2022-11-20T06:50:33;2.65;;;1.77;;
21741;SDS011;11033;47.490;11.116;2022-11-20T06:53:01;2.70;;;2.23;;
21741;SDS011;11033;47.490;11.116;2022-11-20T06:55:27;3.78;;;2.15;;
21741;SDS011;11033;47.490;11.116;2022-11-20T06:57:53;2.35;;;1.95;;
21741;SDS011;11033;47.490;11.116;2022-11-20T07:00:18;1.85;;;1.75;;
21741;SDS011;11033;47.490;11.116;2022-11-20T07:02:43;2.15;;;1.95;;
21741;SDS011;11033;47.490;11.116;2022-11-20T07:05:09;1.83;;;1.67;;
21741;SDS011;11033;47.490;11.116;2022-11-20T07:07:34;2.60;;;2.40;;
21741;SDS011;11033;47.490;11.116;2022-11-20T07:09:59;3.40;;;1.90;;
21741;SDS011;11033;47.490;11.116;2022-11-20T07:12:25;1.90;;;1.63;;
21741;SDS011;11033;47.490;11.116;2022-11-20T07:14:50;3.03;;;2.10;;
21741;SDS011;11033;47.490;11.116;2022-11-20T07:17:15;5.00;;;2.00;;
21741;SDS011;11033;47.490;11.116;2022-11-20T07:19:40;3.73;;;2.30;;
21741;SDS011;11033;47.490;11.116;2022-11-20T07:22:07;4.15;;;2.60;;
21741;SDS011;11033;47.490;11.116;2022-11-20T07:24:33;6.10;;;3.72;;
21741;SDS011;11033;47.490;11.116;2022-11-20T07:26:58;20.57;;;14.17;;
21741;SDS011;11033;47.490;11.116;2022-11-20T07:29:23;13.53;;;9.37;;
21741;SDS011;11033;47.490;11.116;2022-11-20T07:31:49;12.30;;;8.15;;
21741;SDS011;11033;47.490;11.116;2022-11-20T07:34:14;7.15;;;5.63;;
21741;SDS011;11033;47.490;11.116;2022-11-20T07:36:39;8.05;;;6.35;;
21741;SDS011;11033;47.490;11.116;2022-11-20T07:39:05;9.77;;;6.30;;
21741;SDS011;11033;47.490;11.116;2022-11-20T07:41:30;8.55;;;5.75;;
21741;SDS011;11033;47.490;11.116;2022-11-20T07:43:56;9.20;;;6.47;;
21741;SDS011;11033;47.490;11.116;2022-11-20T07:46:21;8.70;;;6.60;;
21741;SDS011;11033;47.490;11.116;2022-11-20T07:48:46;4.40;;;4.00;;
21741;SDS011;11033;47.490;11.116;2022-11-20T07:51:11;8.67;;;5.20;;
21741;SDS011;11033;47.490;11.116;2022-11-20T07:53:38;14.50;;;7.57;;
21741;SDS011;11033;47.490;11.116;2022-11-20T07:56:03;16.55;;;7.88;;
21741;SDS011;11033;47.490;11.116;2022-11-20T07:58:29;13.35;;;7.30;;
21741;SDS011;11033;47.490;11.116;2022-11-20T08:00:55;7.40;;;4.10;;
21741;SDS011;11033;47.490;11.116;2022-11-20T08:03:21;5.68;;;3.92;;
21741;SDS011;11033;47.490;11.116;2022-11-20T08:05:46;6.90;;;4.15;;
21741;SDS011;11033;47.490;11.116;2022-11-20T08:08:11;6.43;;;4.43;;
21741;SDS011;11033;47.490;11.116;2022-11-20T08:10:37;5.50;;;4.28;;
21741;SDS011;11033;47.490;11.116;2022-11-20T08:13:02;5.65;;;3.53;;
21741;SDS011;11033;47.490;11.116;2022-11-20T08:15:49;5.05;;;3.85;;
21741;SDS011;11033;47.490;11.116;2022-11-20T08:18:16;5.72;;;4.50;;
21741;SDS011;11033;47.490;11.116;2022-11-20T08:20:42;4.47;;;3.55;;
21741;SDS011;11033;47.490;11.116;2022-11-20T08:23:07;4.22;;;3.30;;
21741;SDS011;11033;47.490;11.116;2022-11-20T08:25:33;5.57;;;3.72;;
21741;SDS011;11033;47.490;11.116;2022-11-20T08:28:01;3.38;;;3.08;;
21741;SDS011;11033;47.490;11.116;2022-11-20T08:30:28;3.45;;;2.60;;
21741;SDS011;11033;47.490;11.116;2022-11-20T08:32:54;4.65;;;2.92;;
21741;SDS011;11033;47.490;11.116;2022-11-20T08:35:20;5.40;;;2.67;;
21741;SDS011;11033;47.490;11.116;2022-11-20T08:37:48;2.72;;;2.50;;
21741;SDS011;11033;47.490;11.116;2022-11-20T08:40:14;3.95;;;2.92;;
21741;SDS011;11033;47.490;11.116;2022-11-20T08:42:49;4.07;;;2.33;;
21741;SDS011;11033;47.490;11.116;2022-11-20T08:45:16;2.53;;;2.33;;
21741;SDS011;11033;47.490;11.116;2022-11-20T08:47:42;2.38;;;1.95;;
21741;SDS011;11033;47.490;11.116;2022-11-20T08:50:09;2.78;;;2.40;;
21741;SDS011;11033;47.490;11.116;2022-11-20T08:52:35;2.72;;;2.30;;
21741;SDS011;11033;47.490;11.116;2022-11-20T08:55:01;2.90;;;2.55;;
21741;SDS011;11033;47.490;11.116;2022-11-20T08:57:26;2.47;;;2.03;;
21741;SDS011;11033;47.490;11.116;2022-11-20T08:59:51;3.67;;;2.17;;
21741;SDS011;11033;47.490;11.116;2022-11-20T09:02:16;1.87;;;1.50;;
21741;SDS011;11033;47.490;11.116;2022-11-20T09:04:42;2.75;;;1.77;;
21741;SDS011;11033;47.490;11.116;2022-11-20T09:07:07;3.47;;;2.60;;
21741;SDS011;11033;47.490;11.116;2022-11-20T09:09:32;3.20;;;2.58;;
21741;SDS011;11033;47.490;11.116;2022-11-20T09:11:58;3.88;;;2.47;;
21741;SDS011;11033;47.490;11.116;2022-11-20T09:14:23;3.30;;;2.60;;
21741;SDS011;11033;47.490;11.116;2022-11-20T09:16:54;4.43;;;4.03;;
21741;SDS011;11033;47.490;11.116;2022-11-20T09:19:20;5.03;;;4.10;;
21741;SDS011;11033;47.490;11.116;2022-11-20T09:21:45;5.72;;;3.78;;
21741;SDS011;11033;47.490;11.116;2022-11-20T09:24:10;1.70;;;1.60;;
21741;SDS011;11033;47.490;11.116;2022-11-20T09:26:36;2.38;;;1.40;;
21741;SDS011;11033;47.490;11.116;2022-11-20T09:29:01;1.17;;;1.07;;
21741;SDS011;11033;47.490;11.116;2022-11-20T09:31:26;0.90;;;0.90;;
21741;SDS011;11033;47.490;11.116;2022-11-20T09:33:51;0.90;;;0.90;;
21741;SDS011;11033;47.490;11.116;2022-11-20T09:36:17;2.15;;;1.00;;
21741;SDS011;11033;47.490;11.116;2022-11-20T09:38:43;1.13;;;0.95;;
21741;SDS011;11033;47.490;11.116;2022-11-20T09:41:16;1.17;;;1.08;;
21741;SDS011;11033;47.490;11.116;2022-11-20T09:46:45;1.10;;;1.00;;
21741;SDS011;11033;47.490;11.116;2022-11-20T09:51:59;1.17;;;1.10;;
21741;SDS011;11033;47.490;11.116;2022-11-20T09:54:39;1.58;;;1.15;;
21741;SDS011;11033;47.490;11.116;2022-11-20T09:57:09;1.35;;;1.13;;
21741;SDS011;11033;47.490;11.116;2022-11-20T09:59:40;1.42;;;1.30;;
21741;SDS011;11033;47.490;11.116;2022-11-20T10:02:26;1.30;;;0.90;;
21741;SDS011;11033;47.490;11.116;2022-11-20T10:05:04;1.65;;;0.90;;
21741;SDS011;11033;47.490;11.116;2022-11-20T10:07:41;0.80;;;0.80;;
21741;SDS011;11033;47.490;11.116;2022-11-20T10:10:16;1.58;;;1.48;;
21741;SDS011;11033;47.490;11.116;2022-11-20T10:12:51;1.50;;;1.40;;
21741;SDS011;11033;47.490;11.116;2022-11-20T10:18:58;1.63;;;1.50;;
21741;SDS011;11033;47.490;11.116;2022-11-20T10:26:56;0.70;;;0.70;;
21741;SDS011;11033;47.490;11.116;2022-11-20T10:29:33;0.80;;;0.80;;
21741;SDS011;11033;47.490;11.116;2022-11-20T10:32:00;1.88;;;0.90;;
21741;SDS011;11033;47.490;11.116;2022-11-20T10:34:34;0.70;;;0.70;;
21741;SDS011;11033;47.490;11.116;2022-11-20T10:40:17;0.90;;;0.90;;
21741;SDS011;11033;47.490;11.116;2022-11-20T10:42:50;0.60;;;0.60;;
21741;SDS011;11033;47.490;11.116;2022-11-20T10:45:44;1.38;;;0.70;;
21741;SDS011;11033;47.490;11.116;2022-11-20T10:48:23;1.85;;;1.20;;
21741;SDS011;11033;47.490;11.116;2022-11-20T10:53:51;1.10;;;0.93;;
21741;SDS011;11033;47.490;11.116;2022-11-20T10:56:24;1.00;;;0.70;;
21741;SDS011;11033;47.490;11.116;2022-11-20T10:59:15;1.92;;;0.68;;
21741;SDS011;11033;47.490;11.116;2022-11-20T11:01:52;0.60;;;0.60;;
21741;SDS011;11033;47.490;11.116;2022-11-20T11:09:37;0.90;;;0.90;;
21741;SDS011;11033;47.490;11.116;2022-11-20T11:12:08;0.80;;;0.77;;
21741;SDS011;11033;47.490;11.116;2022-11-20T11:14:47;1.10;;;0.52;;
21741;SDS011;11033;47.490;11.116;2022-11-20T11:17:22;0.70;;;0.70;;
21741;SDS011;11033;47.490;11.116;2022-11-20T11:22:48;0.70;;;0.70;;
21741;SDS011;11033;47.490;11.116;2022-11-20T11:25:27;0.60;;;0.60;;
21741;SDS011;11033;47.490;11.116;2022-11-20T11:28:00;0.80;;;0.80;;
21741;SDS011;11033;47.490;11.116;2022-11-20T11:30:44;0.73;;;0.60;;
21741;SDS011;11033;47.490;11.116;2022-11-20T11:33:11;0.70;;;0.70;;
21741;SDS011;11033;47.490;11.116;2022-11-20T11:35:47;0.80;;;0.80;;
21741;SDS011;11033;47.490;11.116;2022-11-20T11:38:16;0.80;;;0.80;;
21741;SDS011;11033;47.490;11.116;2022-11-20T11:40:44;0.70;;;0.70;;
21741;SDS011;11033;47.490;11.116;2022-11-20T11:43:19;1.75;;;0.80;;
21741;SDS011;11033;47.490;11.116;2022-11-20T11:54:25;1.90;;;1.77;;
21741;SDS011;11033;47.490;11.116;2022-11-20T11:56:55;1.98;;;1.98;;
21741;SDS011;11033;47.490;11.116;2022-11-20T11:59:33;0.52;;;0.52;;
21741;SDS011;11033;47.490;11.116;2022-11-20T12:02:15;2.17;;;2.08;;
21741;SDS011;11033;47.490;11.116;2022-11-20T12:05:53;2.55;;;1.77;;
21741;SDS011;11033;47.490;11.116;2022-11-20T12:13:02;1.00;;;0.90;;
21741;SDS011;11033;47.490;11.116;2022-11-20T12:15:34;3.00;;;2.90;;
21741;SDS011;11033;47.490;11.116;2022-11-20T12:18:12;4.82;;;4.63;;
21741;SDS011;11033;47.490;11.116;2022-11-20T12:20:41;170.73;;;162.65;;
21741;SDS011;11033;47.490;11.116;2022-11-20T12:23:18;3.30;;;3.10;;
21741;SDS011;11033;47.490;11.116;2022-11-20T12:25:53;1.15;;;0.70;;
21741;SDS011;11033;47.490;11.116;2022-11-20T12:39:42;8.77;;;8.43;;
21741;SDS011;11033;47.490;11.116;2022-11-20T12:42:11;11.07;;;10.30;;
21741;SDS011;11033;47.490;11.116;2022-11-20T12:53:43;3.50;;;3.30;;
21741;SDS011;11033;47.490;11.116;2022-11-20T12:59:07;3.40;;;3.30;;
21741;SDS011;11033;47.490;11.116;2022-11-20T13:02:17;3.28;;;3.17;;
21741;SDS011;11033;47.490;11.116;2022-11-20T13:05:05;7.13;;;6.68;;
21741;SDS011;11033;47.490;11.116;2022-11-20T13:07:39;0.80;;;0.80;;
21741;SDS011;11033;47.490;11.116;2022-11-20T13:10:10;2.17;;;2.15;;
21741;SDS011;11033;47.490;11.116;2022-11-20T13:12:47;1.08;;;1.08;;
21741;SDS011;11033;47.490;11.116;2022-11-20T13:18:08;5.70;;;5.30;;
21741;SDS011;11033;47.490;11.116;2022-11-20T13:20:36;4.15;;;3.95;;
21741;SDS011;11033;47.490;11.116;2022-11-20T13:23:07;9.48;;;9.07;;
21741;SDS011;11033;47.490;11.116;2022-11-20T13:25:36;8.93;;;8.52;;
21741;SDS011;11033;47.490;11.116;2022-11-20T13:28:25;8.93;;;8.60;;
21741;SDS011;11033;47.490;11.116;2022-11-20T13:30:55;0.85;;;0.85;;
21741;SDS011;11033;47.490;11.116;2022-11-20T13:33:22;0.57;;;0.57;;
21741;SDS011;11033;47.490;11.116;2022-11-20T13:35:55;20.08;;;19.30;;
21741;SDS011;11033;47.490;11.116;2022-11-20T13:38:23;1.20;;;1.15;;
21741;SDS011;11033;47.490;11.116;2022-11-20T13:40:55;1.00;;;0.90;;
21741;SDS011;11033;47.490;11.116;2022-11-20T13:45:58;0.85;;;0.85;;
21741;SDS011;11033;47.490;11.116;2022-11-20T13:59:37;3.97;;;3.63;;
21741;SDS011;11033;47.490;11.116;2022-11-20T14:02:13;1.70;;;1.60;;
21741;SDS011;11033;47.490;11.116;2022-11-20T14:04:48;1.30;;;1.23;;
21741;SDS011;11033;47.490;11.116;2022-11-20T14:07:15;2.03;;;1.90;;
21741;SDS011;11033;47.490;11.116;2022-11-20T14:09:53;1.80;;;1.70;;
21741;SDS011;11033;47.490;11.116;2022-11-20T14:12:22;2.00;;;1.90;;
21741;SDS011;11033;47.490;11.116;2022-11-20T14:14:52;1999.90;;;999.90;;
21741;SDS011;11033;47.490;11.116;2022-11-20T14:17:23;1999.90;;;999.90;;
21741;SDS011;11033;47.490;11.116;2022-11-20T14:20:01;1999.90;;;999.90;;
21741;SDS011;11033;47.490;11.116;2022-11-20T14:22:29;14.07;;;13.55;;
21741;SDS011;11033;47.490;11.116;2022-11-20T14:27:39;2.13;;;1.95;;
21741;SDS011;11033;47.490;11.116;2022-11-20T14:30:14;2.55;;;2.35;;
21741;SDS011;11033;47.490;11.116;2022-11-20T14:32:42;1.70;;;1.55;;
21741;SDS011;11033;47.490;11.116;2022-11-20T14:35:13;3.53;;;1.45;;
21741;SDS011;11033;47.490;11.116;2022-11-20T14:37:44;1.38;;;1.25;;
21741;SDS011;11033;47.490;11.116;2022-11-20T14:40:29;3.42;;;1.98;;
21741;SDS011;11033;47.490;11.116;2022-11-20T14:42:56;2.90;;;2.70;;
21741;SDS011;11033;47.490;11.116;2022-11-20T14:45:23;7.38;;;6.35;;
21741;SDS011;11033;47.490;11.116;2022-11-20T14:47:50;4.90;;;2.47;;
21741;SDS011;11033;47.490;11.116;2022-11-20T14:50:28;1.92;;;1.30;;
21741;SDS011;11033;47.490;11.116;2022-11-20T14:52:55;2.20;;;0.98;;
21741;SDS011;11033;47.490;11.116;2022-11-20T14:55:29;2.65;;;0.70;;
21741;SDS011;11033;47.490;11.116;2022-11-20T14:58:03;2.67;;;2.20;;
21741;SDS011;11033;47.490;11.116;2022-11-20T15:00:30;5.18;;;3.88;;
21741;SDS011;11033;47.490;11.116;2022-11-20T15:02:57;10.73;;;4.95;;
21741;SDS011;11033;47.490;11.116;2022-11-20T15:05:26;4.97;;;3.65;;
21741;SDS011;11033;47.490;11.116;2022-11-20T15:08:10;3.58;;;3.08;;
21741;SDS011;11033;47.490;11.116;2022-11-20T15:10:48;47.30;;;33.47;;
21741;SDS011;11033;47.490;11.116;2022-11-20T15:13:16;11.88;;;6.60;;
21741;SDS011;11033;47.490;11.116;2022-11-20T15:15:48;6.95;;;6.25;;
21741;SDS011;11033;47.490;11.116;2022-11-20T15:18:16;10.70;;;8.05;;
21741;SDS011;11033;47.490;11.116;2022-11-20T15:20:44;12.05;;;7.22;;
21741;SDS011;11033;47.490;11.116;2022-11-20T15:23:10;22.92;;;12.93;;
21741;SDS011;11033;47.490;11.116;2022-11-20T15:25:37;12.40;;;6.40;;
21741;SDS011;11033;47.490;11.116;2022-11-20T15:28:04;10.70;;;5.97;;
21741;SDS011;11033;47.490;11.116;2022-11-20T15:30:38;7.90;;;4.32;;
21741;SDS011;11033;47.490;11.116;2022-11-20T15:33:04;5.05;;;4.22;;
21741;SDS011;11033;47.490;11.116;2022-11-20T15:35:29;4.25;;;3.58;;
21741;SDS011;11033;47.490;11.116;2022-11-20T15:37:55;3.60;;;3.05;;
21741;SDS011;11033;47.490;11.116;2022-11-20T15:40:20;4.72;;;3.40;;
21741;SDS011;11033;47.490;11.116;2022-11-20T15:42:45;5.40;;;3.07;;
21741;SDS011;11033;47.490;11.116;2022-11-20T15:45:27;6.13;;;2.00;;
21741;SDS011;11033;47.490;11.116;2022-11-20T15:47:56;3.80;;;3.10;;
21741;SDS011;11033;47.490;11.116;2022-11-20T15:50:22;1.88;;;1.60;;
21741;SDS011;11033;47.490;11.116;2022-11-20T15:52:54;6.00;;;2.67;;
21741;SDS011;11033;47.490;11.116;2022-11-20T15:55:19;4.33;;;2.80;;
21741;SDS011;11033;47.490;11.116;2022-11-20T15:57:44;6.20;;;2.63;;
21741;SDS011;11033;47.490;11.116;2022-11-20T16:00:10;3.03;;;2.47;;
21741;SDS011;11033;47.490;11.116;2022-11-20T16:02:36;11.00;;;6.40;;
21741;SDS011;11033;47.490;11.116;2022-11-20T16:05:01;10.23;;;6.28;;
21741;SDS011;11033;47.490;11.116;2022-11-20T16:07:26;12.70;;;7.28;;
21741;SDS011;11033;47.490;11.116;2022-11-20T16:09:51;12.10;;;6.30;;
21741;SDS011;11033;47.490;11.116;2022-11-20T16:12:17;8.30;;;3.73;;
21741;SDS011;11033;47.490;11.116;2022-11-20T16:15:02;6.10;;;2.78;;
21741;SDS011;11033;47.490;11.116;2022-11-20T16:17:46;6.15;;;4.03;;
21741;SDS011;11033;47.490;11.116;2022-11-20T16:20:11;4.10;;;2.83;;